createdAt,value
2023-02-11T00:00:40.846Z,12.13
2023-02-11T00:03:08.209Z,13.10
2023-02-11T00:05:36.099Z,13.32
2023-02-11T00:08:03.569Z,12.50
2023-02-11T00:10:30.263Z,13.05
2023-02-11T00:12:56.787Z,12.05
2023-02-11T00:15:23.930Z,12.48
2023-02-11T00:17:50.630Z,14.27
2023-02-11T00:20:17.966Z,15.77
2023-02-11T00:22:45.297Z,15.02
2023-02-11T00:25:12.374Z,15.95
2023-02-11T00:27:41.271Z,13.48
2023-02-11T00:30:08.491Z,14.40
2023-02-11T00:32:36.927Z,14.35
2023-02-11T00:35:03.569Z,14.68
2023-02-11T00:37:30.107Z,13.70
2023-02-11T00:39:56.685Z,15.82
2023-02-11T00:42:23.173Z,16.23
2023-02-11T00:44:50.221Z,15.73
2023-02-11T00:47:17.039Z,15.68
2023-02-11T00:49:43.857Z,14.90
2023-02-11T00:52:10.809Z,15.25
2023-02-11T00:54:37.363Z,16.00
2023-02-11T00:57:03.972Z,14.40
2023-02-11T00:59:30.528Z,15.70
2023-02-11T01:01:57.155Z,13.82
2023-02-11T01:04:24.106Z,16.50
2023-02-11T01:06:50.664Z,16.10
2023-02-11T01:09:17.325Z,15.75
2023-02-11T01:11:44.169Z,18.55
2023-02-11T01:14:10.848Z,16.25
2023-02-11T01:16:38.001Z,15.40
2023-02-11T01:19:04.572Z,16.15
2023-02-11T01:21:31.295Z,14.77
2023-02-11T01:23:57.714Z,12.45
2023-02-11T01:26:24.330Z,15.55
2023-02-11T01:28:50.986Z,16.83
2023-02-11T01:31:17.435Z,13.60
2023-02-11T01:33:44.487Z,14.18
2023-02-11T01:36:11.962Z,14.90
2023-02-11T01:38:40.779Z,13.55
2023-02-11T01:41:10.299Z,14.60
2023-02-11T01:43:39.806Z,13.27
2023-02-11T01:46:32.885Z,12.40
2023-02-11T01:49:10.835Z,13.68
2023-02-11T01:51:41.191Z,12.27
2023-02-11T01:54:28.619Z,14.32
2023-02-11T01:57:17.393Z,13.35
2023-02-11T01:59:48.399Z,14.43
2023-02-11T02:02:19.776Z,15.35
2023-02-11T02:04:53.537Z,16.60
2023-02-11T02:07:28.728Z,12.70
2023-02-11T02:10:01.730Z,13.10
2023-02-11T02:12:28.211Z,11.15
2023-02-11T02:15:31.473Z,13.65
2023-02-11T02:20:36.337Z,14.10
2023-02-11T02:23:21.062Z,17.92
2023-02-11T02:26:04.561Z,14.25
2023-02-11T02:28:48.452Z,16.48
2023-02-11T02:31:36.450Z,19.13
2023-02-11T02:34:09.622Z,12.48
2023-02-11T02:39:31.809Z,12.55
2023-02-11T02:41:58.461Z,12.20
2023-02-11T02:44:25.512Z,13.35
2023-02-11T02:49:18.626Z,10.48
2023-02-11T02:52:07.094Z,11.45
2023-02-11T02:54:33.849Z,13.57
2023-02-11T02:57:32.794Z,10.90
2023-02-11T03:00:29.727Z,11.23
2023-02-11T03:03:38.249Z,11.23
2023-02-11T03:06:14.164Z,12.20
2023-02-11T03:08:47.141Z,11.50
2023-02-11T03:11:16.982Z,11.35
2023-02-11T03:13:46.310Z,12.15
2023-02-11T03:16:38.961Z,12.75
2023-02-11T03:19:12.571Z,17.42
2023-02-11T03:21:42.960Z,13.52
2023-02-11T03:24:16.773Z,13.98
2023-02-11T03:26:49.611Z,12.65
2023-02-11T03:29:51.451Z,12.98
2023-02-11T03:32:32.692Z,10.35
2023-02-11T03:35:10.350Z,13.35
2023-02-11T03:37:53.079Z,12.52
2023-02-11T03:40:26.766Z,11.95
2023-02-11T03:43:00.208Z,10.98
2023-02-11T03:45:28.521Z,11.35
2023-02-11T03:48:00.023Z,11.60
2023-02-11T03:50:31.111Z,14.82
2023-02-11T03:53:01.893Z,17.27
2023-02-11T03:55:30.664Z,13.95
2023-02-11T03:57:57.476Z,14.40
2023-02-11T04:00:32.480Z,16.33
2023-02-11T04:03:01.295Z,13.23
2023-02-11T04:05:28.197Z,12.98
2023-02-11T04:07:54.771Z,12.55
2023-02-11T04:10:21.377Z,13.55
2023-02-11T04:12:47.989Z,14.68
2023-02-11T04:15:14.765Z,11.32
2023-02-11T04:17:42.065Z,12.15
2023-02-11T04:20:09.230Z,14.10
2023-02-11T04:22:36.387Z,12.75
2023-02-11T04:25:04.310Z,14.35
2023-02-11T04:27:31.508Z,14.60
2023-02-11T04:29:57.883Z,13.13
2023-02-11T04:32:24.963Z,14.98
2023-02-11T04:34:51.929Z,12.85
2023-02-11T04:37:18.388Z,14.60
2023-02-11T04:39:45.227Z,14.00
2023-02-11T04:44:39.669Z,11.95
2023-02-11T04:47:06.229Z,11.77
2023-02-11T04:49:32.648Z,13.05
2023-02-11T04:51:59.397Z,12.85
2023-02-11T04:54:25.928Z,14.10
2023-02-11T04:56:52.689Z,16.50
2023-02-11T04:59:19.020Z,14.85
2023-02-11T05:01:45.867Z,15.23
2023-02-11T05:04:12.543Z,14.80
2023-02-11T05:06:39.932Z,11.98
2023-02-11T05:09:06.337Z,15.10
2023-02-11T05:11:32.901Z,15.90
2023-02-11T05:13:59.989Z,13.95
2023-02-11T05:16:27.019Z,14.40
2023-02-11T05:18:55.508Z,11.65
2023-02-11T05:21:22.887Z,13.60
2023-02-11T05:23:50.247Z,17.20
2023-02-11T05:26:17.108Z,14.05
2023-02-11T05:28:44.841Z,13.68
2023-02-11T05:31:12.366Z,13.30
2023-02-11T05:33:39.050Z,13.32
2023-02-11T05:36:09.276Z,13.65
2023-02-11T05:38:36.345Z,13.85
2023-02-11T05:41:04.724Z,14.15
2023-02-11T05:43:31.595Z,11.82
2023-02-11T05:45:58.508Z,13.35
2023-02-11T05:48:24.992Z,11.77
2023-02-11T05:50:51.453Z,10.52
2023-02-11T05:53:18.019Z,12.98
2023-02-11T05:55:44.962Z,14.25
2023-02-11T05:58:11.355Z,13.77
2023-02-11T06:00:38.520Z,14.10
2023-02-11T06:03:05.666Z,12.00
2023-02-11T06:05:32.400Z,13.43
2023-02-11T06:07:59.434Z,10.90
2023-02-11T06:10:26.690Z,11.25
2023-02-11T06:15:20.050Z,9.90
2023-02-11T06:17:46.749Z,10.85
2023-02-11T06:20:13.393Z,10.55
2023-02-11T06:22:40.593Z,11.15
2023-02-11T06:25:07.184Z,11.93
2023-02-11T06:27:33.784Z,11.60
2023-02-11T06:30:01.451Z,11.07
2023-02-11T06:32:43.981Z,12.77
2023-02-11T06:35:12.713Z,13.35
2023-02-11T06:37:40.823Z,12.85
2023-02-11T06:40:07.566Z,12.93
2023-02-11T06:42:35.980Z,14.07
2023-02-11T06:45:05.867Z,13.63
2023-02-11T06:47:33.135Z,12.85
2023-02-11T06:49:59.546Z,13.60
2023-02-11T06:52:26.616Z,13.75
2023-02-11T06:54:53.261Z,13.15
2023-02-11T06:57:19.758Z,13.13
2023-02-11T06:59:46.312Z,14.57
2023-02-11T07:02:12.844Z,13.75
2023-02-11T07:04:39.978Z,15.45
2023-02-11T07:07:06.528Z,14.82
2023-02-11T07:09:33.551Z,14.00
2023-02-11T07:12:00.154Z,14.55
2023-02-11T07:14:27.189Z,13.63
2023-02-11T07:16:53.994Z,13.73
2023-02-11T07:19:20.390Z,14.52
2023-02-11T07:21:48.497Z,15.15
2023-02-11T07:24:15.241Z,14.32
2023-02-11T07:26:41.756Z,15.98
2023-02-11T07:29:08.193Z,14.52
2023-02-11T07:31:34.699Z,14.05
2023-02-11T07:34:02.114Z,13.82
2023-02-11T07:36:31.691Z,14.90
2023-02-11T07:38:58.938Z,15.38
2023-02-11T07:41:26.082Z,15.38
2023-02-11T07:43:53.036Z,14.32
2023-02-11T07:46:22.152Z,15.10
2023-02-11T07:48:48.863Z,17.23
2023-02-11T07:51:20.813Z,13.63
2023-02-11T07:53:49.344Z,15.00
2023-02-11T07:56:17.262Z,14.68
2023-02-11T07:58:44.564Z,12.68
2023-02-11T08:01:15.441Z,14.13
2023-02-11T08:03:43.177Z,12.85
2023-02-11T08:06:16.504Z,14.32
2023-02-11T08:08:44.047Z,12.27
2023-02-11T08:11:16.917Z,13.77
2023-02-11T08:13:44.251Z,13.00
2023-02-11T08:16:24.195Z,13.50
2023-02-11T08:18:51.682Z,14.57
2023-02-11T08:21:19.326Z,15.63
2023-02-11T08:23:46.886Z,16.02
2023-02-11T08:26:16.579Z,15.40
2023-02-11T08:28:46.369Z,15.52
2023-02-11T08:31:25.230Z,14.23
2023-02-11T08:33:53.179Z,15.18
2023-02-11T08:36:25.274Z,15.38
2023-02-11T08:38:57.161Z,13.13
2023-02-11T08:41:29.760Z,14.05
2023-02-11T08:43:56.368Z,15.32
2023-02-11T08:46:23.053Z,14.07
2023-02-11T08:48:50.182Z,15.00
2023-02-11T08:51:28.539Z,14.13
2023-02-11T08:53:55.835Z,16.63
2023-02-11T08:56:24.815Z,14.75
2023-02-11T08:58:52.754Z,15.25
2023-02-11T09:01:24.989Z,14.77
2023-02-11T09:03:52.571Z,14.73
2023-02-11T09:08:49.362Z,14.88
2023-02-11T09:11:18.840Z,15.02
2023-02-11T09:13:46.049Z,14.45
2023-02-11T09:16:26.231Z,15.25
2023-02-11T09:18:53.495Z,16.02
2023-02-11T09:21:20.269Z,14.02
2023-02-11T09:23:47.888Z,15.13
2023-02-11T09:26:18.587Z,14.25
2023-02-11T09:28:45.790Z,16.40
2023-02-11T09:31:16.404Z,15.05
2023-02-11T09:33:47.891Z,14.90
2023-02-11T09:36:32.210Z,16.42
2023-02-11T09:39:00.826Z,18.27
2023-02-11T09:41:41.352Z,15.02
2023-02-11T09:44:17.998Z,15.18
2023-02-11T09:46:53.091Z,16.02
2023-02-11T09:49:26.319Z,14.80
2023-02-11T09:52:54.130Z,15.52
2023-02-11T09:55:26.786Z,16.70
2023-02-11T09:57:56.017Z,14.13
2023-02-11T10:00:28.489Z,13.10
2023-02-11T10:03:03.815Z,17.17
2023-02-11T10:05:43.059Z,18.38
2023-02-11T10:08:25.757Z,16.63
2023-02-11T10:11:02.929Z,18.52
2023-02-11T10:13:42.690Z,17.52
2023-02-11T10:16:41.888Z,15.45
2023-02-11T10:19:28.036Z,14.73
2023-02-11T10:22:13.267Z,15.90
2023-02-11T10:24:55.344Z,18.15
2023-02-11T10:27:30.524Z,16.77
2023-02-11T10:30:16.434Z,14.80
2023-02-11T10:32:48.522Z,16.80
2023-02-11T10:35:21.554Z,16.08
2023-02-11T10:37:49.054Z,16.73
2023-02-11T10:40:22.225Z,15.88
2023-02-11T10:42:55.105Z,15.95
2023-02-11T10:45:31.958Z,16.60
2023-02-11T10:48:00.650Z,18.27
2023-02-11T10:50:30.214Z,17.48
2023-02-11T10:53:15.427Z,15.85
2023-02-11T10:55:51.085Z,17.63
2023-02-11T10:58:25.513Z,16.10
2023-02-11T11:00:55.066Z,17.33
2023-02-11T11:03:25.261Z,14.82
2023-02-11T11:05:59.731Z,16.00
2023-02-11T11:08:43.509Z,16.80
2023-02-11T11:11:13.183Z,16.42
2023-02-11T11:13:58.053Z,16.10
2023-02-11T11:16:35.512Z,17.50
2023-02-11T11:19:07.776Z,16.25
2023-02-11T11:21:43.340Z,14.55
2023-02-11T11:24:31.168Z,16.38
2023-02-11T11:27:03.634Z,16.48
2023-02-11T11:29:35.429Z,14.95
2023-02-11T11:32:05.775Z,16.90
2023-02-11T11:34:40.443Z,17.10
2023-02-11T11:37:20.238Z,15.88
2023-02-11T11:39:57.679Z,17.77
2023-02-11T11:42:28.714Z,16.58
2023-02-11T11:45:23.096Z,16.85
2023-02-11T11:47:59.662Z,16.52
2023-02-11T11:50:29.144Z,16.35
2023-02-11T11:53:04.877Z,16.80
2023-02-11T11:55:37.868Z,16.10
2023-02-11T11:58:10.501Z,15.63
2023-02-11T12:00:54.237Z,16.55
2023-02-11T12:03:56.392Z,15.38
2023-02-11T12:06:48.115Z,14.90
2023-02-11T12:09:25.801Z,16.95
2023-02-11T12:12:11.419Z,15.95
2023-02-11T12:14:53.729Z,16.30
2023-02-11T12:17:35.259Z,15.25
2023-02-11T12:20:35.353Z,17.23
2023-02-11T12:23:15.124Z,15.57
2023-02-11T12:25:59.027Z,19.05
2023-02-11T12:28:40.248Z,20.15
2023-02-11T12:31:19.849Z,18.80
2023-02-11T12:34:18.704Z,17.55
2023-02-11T12:37:06.243Z,19.00
2023-02-11T12:39:40.407Z,15.77
2023-02-11T12:42:55.679Z,16.02
2023-02-11T12:45:41.468Z,14.95
2023-02-11T12:48:29.042Z,15.85
2023-02-11T12:51:06.885Z,17.88
2023-02-11T12:53:44.147Z,17.30
2023-02-11T12:56:29.170Z,17.75
2023-02-11T12:58:58.866Z,17.80
2023-02-11T13:01:36.539Z,17.20
2023-02-11T13:04:11.863Z,17.27
2023-02-11T13:06:48.945Z,17.95
2023-02-11T13:09:22.497Z,17.48
2023-02-11T13:11:57.699Z,15.50
2023-02-11T13:14:38.953Z,16.67
2023-02-11T13:17:27.332Z,16.00
2023-02-11T13:20:01.364Z,16.75
2023-02-11T13:22:57.575Z,16.08
2023-02-11T13:25:43.371Z,16.88
2023-02-11T13:31:03.023Z,16.45
2023-02-11T13:33:39.335Z,14.48
2023-02-11T13:36:05.972Z,15.23
2023-02-11T13:38:33.029Z,14.25
2023-02-11T13:43:36.194Z,14.55
2023-02-11T13:46:05.785Z,15.15
2023-02-11T13:48:53.833Z,15.90
2023-02-11T13:51:38.935Z,15.35
2023-02-11T13:54:07.526Z,17.08
2023-02-11T13:56:43.961Z,17.52
2023-02-11T13:59:26.267Z,20.45
2023-02-11T14:02:11.938Z,18.90
2023-02-11T14:05:23.530Z,16.80
2023-02-11T14:08:30.136Z,17.13
2023-02-11T14:10:58.969Z,16.38
2023-02-11T14:13:30.711Z,18.65
2023-02-11T14:16:20.382Z,16.67
2023-02-11T14:18:55.683Z,16.27
2023-02-11T14:21:32.211Z,16.98
2023-02-11T14:24:01.870Z,17.63
2023-02-11T14:26:42.538Z,16.70
2023-02-11T14:29:27.419Z,17.85
2023-02-11T14:32:25.984Z,15.88
2023-02-11T14:35:04.293Z,15.10
2023-02-11T14:37:50.762Z,13.88
2023-02-11T14:40:32.195Z,14.98
2023-02-11T14:43:11.562Z,15.32
2023-02-11T14:45:39.051Z,15.25
2023-02-11T14:48:14.784Z,15.68
2023-02-11T14:50:53.937Z,15.55
2023-02-11T14:53:23.936Z,14.38
2023-02-11T14:55:52.802Z,14.32
2023-02-11T14:58:30.621Z,14.63
2023-02-11T15:01:00.952Z,14.88
2023-02-11T15:03:33.437Z,13.70
2023-02-11T15:06:05.556Z,13.02
2023-02-11T15:08:35.969Z,13.25
2023-02-11T15:11:07.910Z,13.50
2023-02-11T15:13:35.041Z,13.02
2023-02-11T15:16:06.849Z,14.32
2023-02-11T15:18:40.594Z,13.20
2023-02-11T15:21:08.897Z,12.07
2023-02-11T15:23:37.136Z,15.02
2023-02-11T15:26:13.067Z,15.73
2023-02-11T15:28:48.851Z,16.90
2023-02-11T15:31:17.361Z,16.45
2023-02-11T15:33:44.437Z,16.33
2023-02-11T15:38:38.673Z,18.38
2023-02-11T15:41:07.356Z,15.88
2023-02-11T15:43:48.011Z,16.00
2023-02-11T15:46:18.681Z,15.65
2023-02-11T15:48:51.658Z,16.80
2023-02-11T15:51:28.616Z,16.40
2023-02-11T15:53:59.238Z,15.57
2023-02-11T15:56:30.592Z,15.02
2023-02-11T15:59:00.678Z,15.48
2023-02-11T16:01:36.745Z,14.45
2023-02-11T16:04:05.264Z,17.08
2023-02-11T16:06:39.994Z,15.90
2023-02-11T16:09:08.524Z,15.57
2023-02-11T16:11:38.385Z,18.77
2023-02-11T16:14:22.809Z,18.38
2023-02-11T16:16:52.812Z,14.68
2023-02-11T16:19:22.971Z,16.08
2023-02-11T16:21:53.374Z,18.38
2023-02-11T16:24:34.093Z,16.17
2023-02-11T16:27:03.917Z,16.65
2023-02-11T16:29:33.343Z,17.08
2023-02-11T16:32:19.417Z,15.95
2023-02-11T16:34:47.460Z,14.13
2023-02-11T16:37:14.457Z,17.55
2023-02-11T16:39:41.573Z,16.23
2023-02-11T16:42:10.904Z,15.15
2023-02-11T16:44:37.780Z,17.67
2023-02-11T16:47:08.199Z,17.45
2023-02-11T16:49:39.997Z,18.95
2023-02-11T16:52:09.179Z,17.85
2023-02-11T16:54:35.648Z,16.77
2023-02-11T16:57:02.529Z,18.52
2023-02-11T16:59:29.668Z,17.42
2023-02-11T17:01:57.369Z,17.73
2023-02-11T17:04:29.885Z,16.75
2023-02-11T17:06:58.705Z,16.27
2023-02-11T17:09:30.337Z,17.08
2023-02-11T17:11:57.914Z,20.90
2023-02-11T17:14:28.608Z,17.75
2023-02-11T17:16:57.030Z,14.82
2023-02-11T17:19:23.854Z,19.25
2023-02-11T17:21:52.342Z,19.13
2023-02-11T17:24:20.560Z,17.73
2023-02-11T17:26:48.092Z,18.52
2023-02-11T17:29:18.303Z,16.90
2023-02-11T17:31:45.324Z,15.15
2023-02-11T17:34:14.631Z,17.85
2023-02-11T17:36:41.382Z,16.15
2023-02-11T17:39:08.626Z,15.35
2023-02-11T17:44:03.529Z,13.90
2023-02-11T17:46:30.227Z,19.17
2023-02-11T17:48:58.748Z,17.05
2023-02-11T17:51:27.991Z,18.73
2023-02-11T17:54:00.020Z,17.85
2023-02-11T17:56:26.807Z,19.73
2023-02-11T17:58:53.818Z,19.67
2023-02-11T18:01:20.557Z,17.85
2023-02-11T18:03:47.636Z,18.63
2023-02-11T18:06:14.540Z,16.75
2023-02-11T18:08:43.060Z,16.38
2023-02-11T18:11:10.831Z,16.10
2023-02-11T18:13:37.475Z,16.92
2023-02-11T18:16:06.128Z,16.45
2023-02-11T18:18:33.828Z,15.63
2023-02-11T18:21:03.878Z,17.50
2023-02-11T18:23:30.580Z,17.50
2023-02-11T18:25:56.991Z,17.70
2023-02-11T18:28:25.884Z,16.23
2023-02-11T18:30:59.463Z,14.68
2023-02-11T18:33:27.360Z,16.67
2023-02-11T18:35:53.996Z,16.52
2023-02-11T18:38:22.352Z,16.67
2023-02-11T18:40:50.415Z,18.33
2023-02-11T18:43:18.796Z,19.17
2023-02-11T18:45:47.123Z,15.70
2023-02-11T18:48:14.132Z,20.85
2023-02-11T18:50:44.461Z,13.55
2023-02-11T18:53:13.331Z,12.52
2023-02-11T18:55:42.676Z,12.18
2023-02-11T18:58:10.867Z,12.88
2023-02-11T19:00:41.182Z,10.45
2023-02-11T19:03:07.904Z,11.57
2023-02-11T19:05:48.327Z,10.38
2023-02-11T19:08:15.514Z,10.85
2023-02-11T19:10:45.102Z,10.65
2023-02-11T19:13:11.970Z,10.32
2023-02-11T19:15:43.363Z,10.07
2023-02-11T19:18:10.775Z,10.52
2023-02-11T19:20:42.486Z,8.15
2023-02-11T19:23:09.268Z,9.98
2023-02-11T19:25:36.069Z,10.20
2023-02-11T19:28:03.806Z,10.60
2023-02-11T19:30:30.544Z,10.85
2023-02-11T19:32:57.927Z,12.80
2023-02-11T19:35:24.848Z,11.18
2023-02-11T19:40:19.174Z,12.73
2023-02-11T19:42:45.702Z,13.35
2023-02-11T19:45:14.404Z,13.82
2023-02-11T19:47:41.233Z,14.23
2023-02-11T19:50:08.541Z,16.50
2023-02-11T19:52:46.165Z,15.48
2023-02-11T19:55:13.011Z,14.38
2023-02-11T19:57:40.028Z,17.52
2023-02-11T20:00:07.443Z,18.10
2023-02-11T20:02:37.797Z,17.73
2023-02-11T20:05:04.960Z,17.58
2023-02-11T20:07:31.381Z,20.35
2023-02-11T20:09:57.984Z,22.23
2023-02-11T20:12:24.370Z,18.40
2023-02-11T20:14:51.071Z,19.92
2023-02-11T20:17:17.529Z,23.10
2023-02-11T20:19:43.995Z,22.38
2023-02-11T20:22:10.358Z,22.30
2023-02-11T20:24:36.822Z,22.58
2023-02-11T20:27:03.326Z,21.00
2023-02-11T20:29:31.696Z,21.25
2023-02-11T20:31:58.439Z,20.50
2023-02-11T20:34:25.280Z,23.20
2023-02-11T20:36:52.385Z,19.95
2023-02-11T20:39:22.130Z,17.95
2023-02-11T20:41:49.525Z,13.57
2023-02-11T20:44:16.411Z,12.32
2023-02-11T20:46:48.224Z,12.75
2023-02-11T20:49:18.696Z,10.60
2023-02-11T20:51:46.106Z,11.50
2023-02-11T20:54:15.978Z,9.95
2023-02-11T20:56:45.516Z,10.20
2023-02-11T20:59:14.056Z,11.73
2023-02-11T21:01:44.167Z,10.30
2023-02-11T21:04:14.383Z,10.13
2023-02-11T21:06:44.689Z,10.55
2023-02-11T21:09:14.011Z,14.00
2023-02-11T21:11:41.244Z,17.23
2023-02-11T21:14:08.188Z,14.00
2023-02-11T21:16:34.904Z,14.93
2023-02-11T21:19:02.889Z,16.10
2023-02-11T21:21:30.045Z,16.90
2023-02-11T21:23:58.364Z,16.13
2023-02-11T21:26:25.390Z,14.02
2023-02-11T21:31:23.251Z,18.15
2023-02-11T21:33:51.147Z,18.23
2023-02-11T21:36:17.862Z,20.23
2023-02-11T21:38:44.330Z,19.63
2023-02-11T21:41:10.751Z,19.63
2023-02-11T21:43:37.566Z,20.65
2023-02-11T21:46:14.890Z,18.95
2023-02-11T21:48:41.955Z,17.88
2023-02-11T21:53:37.909Z,21.40
2023-02-11T21:56:10.182Z,18.58
2023-02-11T21:58:37.854Z,20.23
2023-02-11T22:03:45.509Z,21.27
2023-02-11T22:06:15.184Z,20.27
2023-02-11T22:08:42.883Z,14.98
2023-02-11T22:11:12.546Z,19.83
2023-02-11T22:13:39.969Z,18.65
2023-02-11T22:16:09.525Z,17.17
2023-02-11T22:18:37.247Z,19.75
2023-02-11T22:21:08.014Z,18.00
2023-02-11T22:23:36.016Z,19.45
2023-02-11T22:26:14.924Z,17.60
2023-02-11T22:28:41.454Z,16.65
2023-02-11T22:31:13.411Z,18.95
2023-02-11T22:33:40.420Z,17.98
2023-02-11T22:36:12.315Z,15.30
2023-02-11T22:38:38.737Z,14.88
2023-02-11T22:41:07.842Z,13.05
2023-02-11T22:43:34.874Z,12.63
2023-02-11T22:48:34.157Z,11.07
2023-02-11T22:51:08.565Z,11.57
2023-02-11T22:53:35.501Z,11.38
2023-02-11T22:56:07.347Z,10.77
2023-02-11T22:58:35.472Z,13.13
2023-02-11T23:01:02.858Z,13.50
2023-02-11T23:03:31.319Z,12.00
2023-02-11T23:06:00.817Z,11.73
2023-02-11T23:08:29.876Z,12.80
2023-02-11T23:11:04.262Z,10.73
2023-02-11T23:13:34.730Z,9.45
2023-02-11T23:16:07.318Z,10.10
2023-02-11T23:18:38.581Z,9.95
2023-02-11T23:21:15.683Z,10.35
2023-02-11T23:23:43.208Z,9.40
2023-02-11T23:26:12.607Z,9.63
2023-02-11T23:28:39.675Z,9.38
2023-02-11T23:31:18.105Z,11.57
2023-02-11T23:33:46.687Z,12.82
2023-02-11T23:36:15.116Z,10.88
2023-02-11T23:38:42.302Z,10.98
2023-02-11T23:41:10.088Z,9.70
2023-02-11T23:43:37.480Z,9.93
2023-02-11T23:46:05.006Z,10.43
2023-02-11T23:48:33.831Z,10.00
2023-02-11T23:51:00.570Z,10.35
2023-02-11T23:53:28.081Z,9.18
2023-02-11T23:55:55.037Z,11.25
2023-02-11T23:58:21.977Z,11.55
